sensor_id;sensor_type;location;lat;lon;timestamp;pressure;altitude;pressure_sealevel;temperature;humidity
35577;BME280;21680;52.400;16.920;2023-01-28T00:02:06;101709.03;;;-1.31;84.47
35577;BME280;21680;52.400;16.920;2023-01-28T00:04:31;101705.88;;;-1.31;84.47
35577;BME280;21680;52.400;16.920;2023-01-28T00:06:57;101704.33;;;-1.30;84.62
35577;BME280;21680;52.400;16.920;2023-01-28T00:09:22;101698.66;;;-1.32;84.54
35577;BME280;21680;52.400;16.920;2023-01-28T00:11:47;101699.52;;;-1.33;84.36
35577;BME280;21680;52.400;16.920;2023-01-28T00:14:13;101700.36;;;-1.34;84.11
35577;BME280;21680;52.400;16.920;2023-01-28T00:16:38;101704.71;;;-1.36;84.14
35577;BME280;21680;52.400;16.920;2023-01-28T00:19:03;101706.29;;;-1.36;84.17
35577;BME280;21680;52.400;16.920;2023-01-28T00:21:29;101705.95;;;-1.36;83.99
35577;BME280;21680;52.400;16.920;2023-01-28T00:23:55;101708.02;;;-1.37;84.15
35577;BME280;21680;52.400;16.920;2023-01-28T00:26:22;101707.31;;;-1.38;83.88
35577;BME280;21680;52.400;16.920;2023-01-28T00:28:47;101707.30;;;-1.38;83.88
35577;BME280;21680;52.400;16.920;2023-01-28T00:31:18;101706.23;;;-1.39;83.75
35577;BME280;21680;52.400;16.920;2023-01-28T00:33:45;101706.56;;;-1.39;83.75
35577;BME280;21680;52.400;16.920;2023-01-28T00:36:11;101709.60;;;-1.37;83.92
35577;BME280;21680;52.400;16.920;2023-01-28T00:38:37;101709.80;;;-1.36;83.83
35577;BME280;21680;52.400;16.920;2023-01-28T00:41:14;101707.71;;;-1.35;83.90
35577;BME280;21680;52.400;16.920;2023-01-28T00:43:41;101710.45;;;-1.38;83.47
35577;BME280;21680;52.400;16.920;2023-01-28T00:46:08;101715.28;;;-1.42;83.36
35577;BME280;21680;52.400;16.920;2023-01-28T00:48:38;101715.58;;;-1.44;83.34
35577;BME280;21680;52.400;16.920;2023-01-28T00:51:05;101712.59;;;-1.44;83.25
35577;BME280;21680;52.400;16.920;2023-01-28T00:53:38;101715.71;;;-1.46;83.30
35577;BME280;21680;52.400;16.920;2023-01-28T00:56:06;101718.54;;;-1.45;83.50
35577;BME280;21680;52.400;16.920;2023-01-28T00:58:32;101712.78;;;-1.44;83.30
35577;BME280;21680;52.400;16.920;2023-01-28T01:01:09;101717.15;;;-1.44;83.43
35577;BME280;21680;52.400;16.920;2023-01-28T01:03:35;101714.34;;;-1.44;83.31
35577;BME280;21680;52.400;16.920;2023-01-28T01:06:00;101715.61;;;-1.43;83.38
35577;BME280;21680;52.400;16.920;2023-01-28T01:08:26;101719.98;;;-1.43;83.23
35577;BME280;21680;52.400;16.920;2023-01-28T01:11:03;101717.83;;;-1.45;83.03
35577;BME280;21680;52.400;16.920;2023-01-28T01:13:29;101717.25;;;-1.47;83.07
35577;BME280;21680;52.400;16.920;2023-01-28T01:16:22;101715.52;;;-1.46;83.08
35577;BME280;21680;52.400;16.920;2023-01-28T01:18:50;101714.45;;;-1.48;82.92
35577;BME280;21680;52.400;16.920;2023-01-28T01:21:18;101713.59;;;-1.54;83.01
35577;BME280;21680;52.400;16.920;2023-01-28T01:23:45;101718.44;;;-1.57;82.93
35577;BME280;21680;52.400;16.920;2023-01-28T01:26:11;101714.93;;;-1.57;82.92
35577;BME280;21680;52.400;16.920;2023-01-28T01:28:39;101717.09;;;-1.54;82.98
35577;BME280;21680;52.400;16.920;2023-01-28T01:31:15;101719.94;;;-1.52;83.10
35577;BME280;21680;52.400;16.920;2023-01-28T01:33:43;101717.42;;;-1.55;82.65
35577;BME280;21680;52.400;16.920;2023-01-28T01:36:11;101720.88;;;-1.57;82.61
35577;BME280;21680;52.400;16.920;2023-01-28T01:38:37;101718.48;;;-1.55;82.83
35577;BME280;21680;52.400;16.920;2023-01-28T01:41:04;101715.42;;;-1.51;82.93
35577;BME280;21680;52.400;16.920;2023-01-28T01:43:49;101717.38;;;-1.50;83.04
35577;BME280;21680;52.400;16.920;2023-01-28T01:46:47;101717.52;;;-1.51;83.06
35577;BME280;21680;52.400;16.920;2023-01-28T01:49:18;101713.41;;;-1.54;82.75
35577;BME280;21680;52.400;16.920;2023-01-28T01:51:47;101706.29;;;-1.59;82.58
35577;BME280;21680;52.400;16.920;2023-01-28T01:54:16;101703.31;;;-1.59;82.74
35577;BME280;21680;52.400;16.920;2023-01-28T01:56:45;101700.33;;;-1.60;82.72
35577;BME280;21680;52.400;16.920;2023-01-28T01:59:14;101700.81;;;-1.61;82.65
35577;BME280;21680;52.400;16.920;2023-01-28T02:01:41;101701.98;;;-1.63;82.79
35577;BME280;21680;52.400;16.920;2023-01-28T02:04:14;101705.98;;;-1.66;82.84
35577;BME280;21680;52.400;16.920;2023-01-28T02:06:43;101702.79;;;-1.67;82.75
35577;BME280;21680;52.400;16.920;2023-01-28T02:09:27;101706.44;;;-1.68;82.73
35577;BME280;21680;52.400;16.920;2023-01-28T02:12:20;101712.23;;;-1.67;82.47
35577;BME280;21680;52.400;16.920;2023-01-28T02:15:06;101713.95;;;-1.69;82.55
35577;BME280;21680;52.400;16.920;2023-01-28T02:17:33;101716.92;;;-1.69;82.59
35577;BME280;21680;52.400;16.920;2023-01-28T02:20:02;101712.86;;;-1.71;82.58
35577;BME280;21680;52.400;16.920;2023-01-28T02:25:33;101715.86;;;-1.70;82.39
35577;BME280;21680;52.400;16.920;2023-01-28T02:36:17;101717.56;;;-1.72;82.62
35577;BME280;21680;52.400;16.920;2023-01-28T02:38:48;101713.86;;;-1.73;82.62
35577;BME280;21680;52.400;16.920;2023-01-28T02:41:22;101715.23;;;-1.74;82.69
35577;BME280;21680;52.400;16.920;2023-01-28T02:43:48;101719.14;;;-1.72;82.67
35577;BME280;21680;52.400;16.920;2023-01-28T02:46:33;101718.47;;;-1.70;82.70
35577;BME280;21680;52.400;16.920;2023-01-28T02:49:23;101718.89;;;-1.68;82.65
35577;BME280;21680;52.400;16.920;2023-01-28T02:54:33;101715.94;;;-1.67;82.59
35577;BME280;21680;52.400;16.920;2023-01-28T02:57:14;101718.85;;;-1.70;82.57
35577;BME280;21680;52.400;16.920;2023-01-28T03:00:01;101717.98;;;-1.69;82.29
35577;BME280;21680;52.400;16.920;2023-01-28T03:07:36;101727.35;;;-1.73;82.52
35577;BME280;21680;52.400;16.920;2023-01-28T03:10:05;101728.41;;;-1.72;82.66
35577;BME280;21680;52.400;16.920;2023-01-28T03:12:34;101729.45;;;-1.73;82.39
35577;BME280;21680;52.400;16.920;2023-01-28T03:15:23;101725.55;;;-1.75;82.60
35577;BME280;21680;52.400;16.920;2023-01-28T03:24:19;101734.36;;;-1.80;82.36
35577;BME280;21680;52.400;16.920;2023-01-28T03:27:13;101731.48;;;-1.83;82.47
35577;BME280;21680;52.400;16.920;2023-01-28T03:30:01;101734.43;;;-1.84;82.48
35577;BME280;21680;52.400;16.920;2023-01-28T03:32:47;101736.17;;;-1.85;82.44
35577;BME280;21680;52.400;16.920;2023-01-28T03:35:33;101736.95;;;-1.89;82.32
35577;BME280;21680;52.400;16.920;2023-01-28T03:38:19;101739.30;;;-1.92;82.24
35577;BME280;21680;52.400;16.920;2023-01-28T03:41:00;101741.33;;;-1.96;82.09
35577;BME280;21680;52.400;16.920;2023-01-28T03:43:25;101745.39;;;-1.94;82.25
35577;BME280;21680;52.400;16.920;2023-01-28T03:45:51;101747.66;;;-1.95;82.18
35577;BME280;21680;52.400;16.920;2023-01-28T03:48:22;101745.98;;;-1.99;82.07
35577;BME280;21680;52.400;16.920;2023-01-28T03:50:48;101740.78;;;-1.97;82.19
35577;BME280;21680;52.400;16.920;2023-01-28T03:53:15;101743.94;;;-1.97;81.98
35577;BME280;21680;52.400;16.920;2023-01-28T03:55:44;101743.66;;;-2.01;81.85
35577;BME280;21680;52.400;16.920;2023-01-28T03:58:11;101743.20;;;-2.04;82.06
35577;BME280;21680;52.400;16.920;2023-01-28T04:00:37;101745.89;;;-2.02;82.07
35577;BME280;21680;52.400;16.920;2023-01-28T04:03:24;101745.85;;;-1.97;82.11
35577;BME280;21680;52.400;16.920;2023-01-28T04:05:59;101745.41;;;-1.93;82.20
35577;BME280;21680;52.400;16.920;2023-01-28T04:08:25;101747.42;;;-1.97;81.66
35577;BME280;21680;52.400;16.920;2023-01-28T04:10:51;101747.59;;;-1.98;82.07
35577;BME280;21680;52.400;16.920;2023-01-28T04:13:17;101744.62;;;-1.97;81.99
35577;BME280;21680;52.400;16.920;2023-01-28T04:15:43;101751.33;;;-1.95;82.10
35577;BME280;21680;52.400;16.920;2023-01-28T04:18:09;101756.02;;;-1.97;81.82
35577;BME280;21680;52.400;16.920;2023-01-28T04:20:34;101761.98;;;-1.96;82.04
35577;BME280;21680;52.400;16.920;2023-01-28T04:23:00;101759.75;;;-1.95;81.81
35577;BME280;21680;52.400;16.920;2023-01-28T04:25:26;101761.00;;;-1.93;81.80
35577;BME280;21680;52.400;16.920;2023-01-28T04:27:51;101763.43;;;-1.94;81.72
35577;BME280;21680;52.400;16.920;2023-01-28T04:30:17;101760.71;;;-1.98;81.63
35577;BME280;21680;52.400;16.920;2023-01-28T04:32:45;101761.55;;;-1.99;81.28
35577;BME280;21680;52.400;16.920;2023-01-28T04:35:11;101764.59;;;-1.97;81.55
35577;BME280;21680;52.400;16.920;2023-01-28T04:37:36;101765.60;;;-1.99;81.48
35577;BME280;21680;52.400;16.920;2023-01-28T04:40:02;101767.96;;;-2.02;81.32
35577;BME280;21680;52.400;16.920;2023-01-28T04:42:27;101761.77;;;-2.05;81.51
35577;BME280;21680;52.400;16.920;2023-01-28T04:44:52;101758.68;;;-2.02;81.20
35577;BME280;21680;52.400;16.920;2023-01-28T04:47:18;101762.27;;;-2.06;80.83
35577;BME280;21680;52.400;16.920;2023-01-28T04:49:44;101762.71;;;-2.09;80.85
35577;BME280;21680;52.400;16.920;2023-01-28T04:52:09;101759.06;;;-2.08;80.72
35577;BME280;21680;52.400;16.920;2023-01-28T04:54:35;101759.32;;;-2.11;80.43
35577;BME280;21680;52.400;16.920;2023-01-28T04:57:00;101761.02;;;-2.14;80.33
35577;BME280;21680;52.400;16.920;2023-01-28T04:59:25;101760.46;;;-2.14;80.37
35577;BME280;21680;52.400;16.920;2023-01-28T05:01:51;101760.34;;;-2.12;80.18
35577;BME280;21680;52.400;16.920;2023-01-28T05:04:16;101761.23;;;-2.11;80.45
35577;BME280;21680;52.400;16.920;2023-01-28T05:06:41;101755.32;;;-2.10;80.39
35577;BME280;21680;52.400;16.920;2023-01-28T05:09:07;101754.00;;;-2.07;80.22
35577;BME280;21680;52.400;16.920;2023-01-28T05:11:33;101755.05;;;-2.07;80.36
35577;BME280;21680;52.400;16.920;2023-01-28T05:13:58;101760.09;;;-2.09;80.05
35577;BME280;21680;52.400;16.920;2023-01-28T05:16:23;101760.53;;;-2.12;79.77
35577;BME280;21680;52.400;16.920;2023-01-28T05:18:48;101759.40;;;-2.15;79.59
35577;BME280;21680;52.400;16.920;2023-01-28T05:21:16;101763.57;;;-2.16;79.54
35577;BME280;21680;52.400;16.920;2023-01-28T05:23:41;101768.48;;;-2.16;79.27
35577;BME280;21680;52.400;16.920;2023-01-28T05:26:07;101771.10;;;-2.16;79.37
35577;BME280;21680;52.400;16.920;2023-01-28T05:28:32;101775.54;;;-2.14;79.39
35577;BME280;21680;52.400;16.920;2023-01-28T05:31:02;101776.84;;;-2.11;79.01
35577;BME280;21680;52.400;16.920;2023-01-28T05:33:28;101775.25;;;-2.11;78.92
35577;BME280;21680;52.400;16.920;2023-01-28T05:35:53;101776.14;;;-2.11;79.10
35577;BME280;21680;52.400;16.920;2023-01-28T05:38:18;101774.22;;;-2.10;78.79
35577;BME280;21680;52.400;16.920;2023-01-28T05:40:43;101774.40;;;-2.10;78.94
35577;BME280;21680;52.400;16.920;2023-01-28T05:43:09;101774.73;;;-2.11;78.72
35577;BME280;21680;52.400;16.920;2023-01-28T05:45:34;101786.07;;;-2.13;78.22
35577;BME280;21680;52.400;16.920;2023-01-28T05:47:59;101786.19;;;-2.15;78.24
35577;BME280;21680;52.400;16.920;2023-01-28T05:50:24;101790.05;;;-2.14;78.21
35577;BME280;21680;52.400;16.920;2023-01-28T05:52:50;101789.38;;;-2.13;78.01
35577;BME280;21680;52.400;16.920;2023-01-28T05:55:15;101787.01;;;-2.10;78.43
35577;BME280;21680;52.400;16.920;2023-01-28T05:57:40;101790.60;;;-2.07;78.21
35577;BME280;21680;52.400;16.920;2023-01-28T06:00:07;101792.05;;;-2.05;78.01
35577;BME280;21680;52.400;16.920;2023-01-28T06:02:33;101792.42;;;-2.04;78.26
35577;BME280;21680;52.400;16.920;2023-01-28T06:04:59;101803.10;;;-2.05;78.17
35577;BME280;21680;52.400;16.920;2023-01-28T06:07:24;101803.07;;;-2.06;78.21
35577;BME280;21680;52.400;16.920;2023-01-28T06:09:49;101801.89;;;-2.04;78.14
35577;BME280;21680;52.400;16.920;2023-01-28T06:12:14;101799.49;;;-2.02;78.25
35577;BME280;21680;52.400;16.920;2023-01-28T06:14:40;101804.13;;;-1.99;78.19
35577;BME280;21680;52.400;16.920;2023-01-28T06:17:06;101807.20;;;-1.95;78.50
35577;BME280;21680;52.400;16.920;2023-01-28T06:19:31;101810.90;;;-1.94;78.38
35577;BME280;21680;52.400;16.920;2023-01-28T06:21:56;101808.48;;;-1.93;78.33
35577;BME280;21680;52.400;16.920;2023-01-28T06:24:21;101811.66;;;-1.91;78.41
35577;BME280;21680;52.400;16.920;2023-01-28T06:26:47;101812.56;;;-1.91;78.15
35577;BME280;21680;52.400;16.920;2023-01-28T06:29:12;101814.09;;;-1.93;78.12
35577;BME280;21680;52.400;16.920;2023-01-28T06:31:37;101815.83;;;-1.93;78.26
35577;BME280;21680;52.400;16.920;2023-01-28T06:34:02;101816.79;;;-1.90;78.40
35577;BME280;21680;52.400;16.920;2023-01-28T06:36:29;101820.19;;;-1.87;78.30
35577;BME280;21680;52.400;16.920;2023-01-28T06:38:54;101819.73;;;-1.85;78.25
35577;BME280;21680;52.400;16.920;2023-01-28T06:41:19;101819.96;;;-1.83;78.18
35577;BME280;21680;52.400;16.920;2023-01-28T06:43:45;101819.42;;;-1.83;78.16
35577;BME280;21680;52.400;16.920;2023-01-28T06:46:10;101820.06;;;-1.85;78.25
35577;BME280;21680;52.400;16.920;2023-01-28T06:48:35;101820.20;;;-1.87;78.22
35577;BME280;21680;52.400;16.920;2023-01-28T06:51:00;101820.55;;;-1.87;78.03
35577;BME280;21680;52.400;16.920;2023-01-28T06:53:26;101819.83;;;-1.88;78.07
35577;BME280;21680;52.400;16.920;2023-01-28T06:55:51;101822.27;;;-1.88;77.86
35577;BME280;21680;52.400;16.920;2023-01-28T06:58:16;101827.21;;;-1.87;77.92
35577;BME280;21680;52.400;16.920;2023-01-28T07:00:42;101828.98;;;-1.86;77.78
35577;BME280;21680;52.400;16.920;2023-01-28T07:03:07;101830.23;;;-1.85;77.77
35577;BME280;21680;52.400;16.920;2023-01-28T07:05:32;101832.33;;;-1.85;77.72
35577;BME280;21680;52.400;16.920;2023-01-28T07:07:58;101836.63;;;-1.82;77.67
35577;BME280;21680;52.400;16.920;2023-01-28T07:10:23;101839.04;;;-1.77;77.84
35577;BME280;21680;52.400;16.920;2023-01-28T07:12:48;101838.02;;;-1.75;77.84
35577;BME280;21680;52.400;16.920;2023-01-28T07:15:14;101846.98;;;-1.74;77.72
35577;BME280;21680;52.400;16.920;2023-01-28T07:17:40;101845.39;;;-1.75;77.34
35577;BME280;21680;52.400;16.920;2023-01-28T07:20:07;101847.58;;;-1.78;77.15
35577;BME280;21680;52.400;16.920;2023-01-28T07:22:33;101846.01;;;-1.78;77.37
35577;BME280;21680;52.400;16.920;2023-01-28T07:24:58;101846.04;;;-1.77;77.22
35577;BME280;21680;52.400;16.920;2023-01-28T07:27:25;101844.31;;;-1.76;77.34
35577;BME280;21680;52.400;16.920;2023-01-28T07:29:50;101839.11;;;-1.74;77.19
35577;BME280;21680;52.400;16.920;2023-01-28T07:32:16;101844.30;;;-1.70;77.32
35577;BME280;21680;52.400;16.920;2023-01-28T07:34:41;101842.63;;;-1.67;77.28
35577;BME280;21680;52.400;16.920;2023-01-28T07:37:08;101841.85;;;-1.63;77.24
35577;BME280;21680;52.400;16.920;2023-01-28T07:39:33;101845.69;;;-1.56;77.50
35577;BME280;21680;52.400;16.920;2023-01-28T07:41:59;101843.02;;;-1.51;77.46
35577;BME280;21680;52.400;16.920;2023-01-28T07:44:24;101841.19;;;-1.47;77.62
35577;BME280;21680;52.400;16.920;2023-01-28T07:46:50;101839.34;;;-1.44;77.35
35577;BME280;21680;52.400;16.920;2023-01-28T07:49:15;101836.84;;;-1.45;77.17
35577;BME280;21680;52.400;16.920;2023-01-28T07:51:40;101834.83;;;-1.42;77.37
35577;BME280;21680;52.400;16.920;2023-01-28T07:54:05;101834.21;;;-1.38;77.34
35577;BME280;21680;52.400;16.920;2023-01-28T07:56:31;101834.86;;;-1.34;77.28
35577;BME280;21680;52.400;16.920;2023-01-28T07:58:56;101836.48;;;-1.32;77.29
35577;BME280;21680;52.400;16.920;2023-01-28T08:01:21;101833.95;;;-1.27;77.36
35577;BME280;21680;52.400;16.920;2023-01-28T08:03:47;101833.32;;;-1.24;77.42
35577;BME280;21680;52.400;16.920;2023-01-28T08:06:12;101834.48;;;-1.21;77.49
35577;BME280;21680;52.400;16.920;2023-01-28T08:08:37;101833.27;;;-1.20;77.29
35577;BME280;21680;52.400;16.920;2023-01-28T08:11:09;101827.77;;;-1.22;77.08
35577;BME280;21680;52.400;16.920;2023-01-28T08:13:35;101832.86;;;-1.22;77.18
35577;BME280;21680;52.400;16.920;2023-01-28T08:16:01;101836.98;;;-1.18;77.37
35577;BME280;21680;52.400;16.920;2023-01-28T08:18:26;101836.67;;;-1.17;76.98
35577;BME280;21680;52.400;16.920;2023-01-28T08:20:56;101830.94;;;-1.22;76.87
35577;BME280;21680;52.400;16.920;2023-01-28T08:23:22;101836.52;;;-1.23;76.92
35577;BME280;21680;52.400;16.920;2023-01-28T08:25:48;101829.91;;;-1.20;76.96
35577;BME280;21680;52.400;16.920;2023-01-28T08:28:15;101829.14;;;-1.16;76.82
35577;BME280;21680;52.400;16.920;2023-01-28T08:30:41;101826.11;;;-1.11;76.88
35577;BME280;21680;52.400;16.920;2023-01-28T08:33:08;101830.55;;;-1.08;76.85
35577;BME280;21680;52.400;16.920;2023-01-28T08:35:34;101830.40;;;-1.07;76.84
35577;BME280;21680;52.400;16.920;2023-01-28T08:38:00;101832.54;;;-1.13;76.56
35577;BME280;21680;52.400;16.920;2023-01-28T08:40:27;101833.86;;;-1.17;76.47
35577;BME280;21680;52.400;16.920;2023-01-28T08:42:53;101835.75;;;-1.18;76.42
35577;BME280;21680;52.400;16.920;2023-01-28T08:45:21;101833.64;;;-1.11;76.71
35577;BME280;21680;52.400;16.920;2023-01-28T08:48:16;101838.61;;;-1.09;76.50
35577;BME280;21680;52.400;16.920;2023-01-28T08:50:42;101838.88;;;-1.05;76.70
35577;BME280;21680;52.400;16.920;2023-01-28T08:53:14;101838.20;;;-1.03;76.69
35577;BME280;21680;52.400;16.920;2023-01-28T08:55:40;101842.01;;;-0.98;76.78
35577;BME280;21680;52.400;16.920;2023-01-28T08:58:09;101842.13;;;-1.01;76.26
35577;BME280;21680;52.400;16.920;2023-01-28T09:00:35;101846.80;;;-1.11;76.07
35577;BME280;21680;52.400;16.920;2023-01-28T09:03:01;101848.95;;;-1.16;76.16
35577;BME280;21680;52.400;16.920;2023-01-28T09:05:27;101851.83;;;-1.13;76.32
35577;BME280;21680;52.400;16.920;2023-01-28T09:07:54;101851.35;;;-1.11;76.21
35577;BME280;21680;52.400;16.920;2023-01-28T09:10:19;101853.39;;;-1.07;76.27
35577;BME280;21680;52.400;16.920;2023-01-28T09:12:45;101849.27;;;-1.03;75.97
35577;BME280;21680;52.400;16.920;2023-01-28T09:15:11;101849.11;;;-1.10;76.13
35577;BME280;21680;52.400;16.920;2023-01-28T09:17:37;101855.40;;;-1.11;76.12
35577;BME280;21680;52.400;16.920;2023-01-28T09:20:03;101854.96;;;-1.07;76.22
35577;BME280;21680;52.400;16.920;2023-01-28T09:22:28;101855.80;;;-1.01;76.41
35577;BME280;21680;52.400;16.920;2023-01-28T09:24:53;101854.95;;;-1.00;76.27
35577;BME280;21680;52.400;16.920;2023-01-28T09:27:19;101853.91;;;-1.00;76.07
35577;BME280;21680;52.400;16.920;2023-01-28T09:29:44;101853.34;;;-1.01;75.93
35577;BME280;21680;52.400;16.920;2023-01-28T09:32:09;101859.05;;;-1.05;75.92
35577;BME280;21680;52.400;16.920;2023-01-28T09:34:35;101864.88;;;-1.04;75.91
35577;BME280;21680;52.400;16.920;2023-01-28T09:37:00;101854.83;;;-0.98;75.93
35577;BME280;21680;52.400;16.920;2023-01-28T09:39:26;101843.96;;;-0.89;76.16
35577;BME280;21680;52.400;16.920;2023-01-28T09:45:21;101841.09;;;-0.77;76.02
35577;BME280;21680;52.400;16.920;2023-01-28T09:47:54;101843.59;;;-0.82;75.74
35577;BME280;21680;52.400;16.920;2023-01-28T09:50:36;101842.98;;;-0.86;75.95
35577;BME280;21680;52.400;16.920;2023-01-28T09:53:19;101848.30;;;-0.91;75.53
35577;BME280;21680;52.400;16.920;2023-01-28T09:55:50;101848.66;;;-0.98;75.50
35577;BME280;21680;52.400;16.920;2023-01-28T09:58:18;101842.77;;;-0.95;75.76
35577;BME280;21680;52.400;16.920;2023-01-28T10:03:37;101846.48;;;-0.87;75.75
35577;BME280;21680;52.400;16.920;2023-01-28T10:14:31;101854.71;;;-0.79;75.64
35577;BME280;21680;52.400;16.920;2023-01-28T10:17:12;101859.84;;;-0.85;75.49
35577;BME280;21680;52.400;16.920;2023-01-28T10:19:47;101855.74;;;-0.96;75.37
35577;BME280;21680;52.400;16.920;2023-01-28T10:22:17;101856.30;;;-0.94;75.38
35577;BME280;21680;52.400;16.920;2023-01-28T10:24:48;101851.64;;;-0.91;75.36
35577;BME280;21680;52.400;16.920;2023-01-28T10:27:18;101856.94;;;-0.90;75.34
35577;BME280;21680;52.400;16.920;2023-01-28T10:29:45;101860.16;;;-0.86;75.63
35577;BME280;21680;52.400;16.920;2023-01-28T10:32:37;101861.61;;;-0.84;75.36
35577;BME280;21680;52.400;16.920;2023-01-28T10:35:00;101863.40;;;-0.99;75.01
35577;BME280;21680;52.400;16.920;2023-01-28T10:37:28;101867.33;;;-0.95;75.26
35577;BME280;21680;52.400;16.920;2023-01-28T10:39:58;101872.14;;;-0.92;75.12
35577;BME280;21680;52.400;16.920;2023-01-28T10:42:29;101870.71;;;-0.93;74.89
35577;BME280;21680;52.400;16.920;2023-01-28T10:45:02;101867.41;;;-1.00;74.66
35577;BME280;21680;52.400;16.920;2023-01-28T10:48:06;101872.02;;;-0.98;74.82
35577;BME280;21680;52.400;16.920;2023-01-28T10:50:33;101869.27;;;-0.95;74.77
35577;BME280;21680;52.400;16.920;2023-01-28T10:53:02;101865.38;;;-0.96;74.71
35577;BME280;21680;52.400;16.920;2023-01-28T10:55:48;101858.38;;;-0.88;74.85
35577;BME280;21680;52.400;16.920;2023-01-28T10:58:26;101859.38;;;-0.82;74.74
35577;BME280;21680;52.400;16.920;2023-01-28T11:00:58;101867.35;;;-0.87;74.82
35577;BME280;21680;52.400;16.920;2023-01-28T11:03:24;101866.02;;;-0.84;74.70
35577;BME280;21680;52.400;16.920;2023-01-28T11:05:54;101865.04;;;-0.80;74.60
35577;BME280;21680;52.400;16.920;2023-01-28T11:08:22;101863.74;;;-0.84;74.58
35577;BME280;21680;52.400;16.920;2023-01-28T11:10:49;101869.40;;;-0.82;74.62
35577;BME280;21680;52.400;16.920;2023-01-28T11:18:22;101868.02;;;-0.73;74.58
35577;BME280;21680;52.400;16.920;2023-01-28T11:21:00;101868.20;;;-0.81;74.37
35577;BME280;21680;52.400;16.920;2023-01-28T11:23:29;101867.75;;;-0.92;74.14
35577;BME280;21680;52.400;16.920;2023-01-28T11:26:01;101863.92;;;-0.91;74.55
35577;BME280;21680;52.400;16.920;2023-01-28T11:28:29;101859.15;;;-0.92;74.15
35577;BME280;21680;52.400;16.920;2023-01-28T11:30:57;101856.31;;;-0.94;74.36
35577;BME280;21680;52.400;16.920;2023-01-28T11:33:36;101854.70;;;-0.95;74.19
35577;BME280;21680;52.400;16.920;2023-01-28T11:36:17;101854.32;;;-0.97;74.29
35577;BME280;21680;52.400;16.920;2023-01-28T11:38:53;101849.38;;;-0.98;74.07
35577;BME280;21680;52.400;16.920;2023-01-28T11:41:29;101844.55;;;-0.94;74.43
35577;BME280;21680;52.400;16.920;2023-01-28T11:43:57;101847.88;;;-0.87;74.30
35577;BME280;21680;52.400;16.920;2023-01-28T11:52:10;101846.13;;;-0.79;74.31
35577;BME280;21680;52.400;16.920;2023-01-28T12:13:38;101828.31;;;-0.41;74.72
35577;BME280;21680;52.400;16.920;2023-01-28T12:16:35;101825.09;;;-0.36;74.56
35577;BME280;21680;52.400;16.920;2023-01-28T12:24:22;101811.31;;;-0.31;74.62
35577;BME280;21680;52.400;16.920;2023-01-28T12:30:17;101806.74;;;-0.31;74.61
35577;BME280;21680;52.400;16.920;2023-01-28T12:32:55;101803.29;;;-0.38;74.51
35577;BME280;21680;52.400;16.920;2023-01-28T12:41:07;101801.17;;;-0.55;74.40
35577;BME280;21680;52.400;16.920;2023-01-28T12:48:56;101805.69;;;-0.57;74.26
35577;BME280;21680;52.400;16.920;2023-01-28T12:54:28;101806.89;;;-0.67;74.28
35577;BME280;21680;52.400;16.920;2023-01-28T12:56:55;101805.82;;;-0.68;74.34
35577;BME280;21680;52.400;16.920;2023-01-28T12:59:32;101806.44;;;-0.64;74.18
35577;BME280;21680;52.400;16.920;2023-01-28T13:04:56;101807.02;;;-0.61;74.28
35577;BME280;21680;52.400;16.920;2023-01-28T13:07:44;101812.13;;;-0.60;74.14
35577;BME280;21680;52.400;16.920;2023-01-28T13:10:45;101818.65;;;-0.68;73.78
35577;BME280;21680;52.400;16.920;2023-01-28T13:13:19;101816.61;;;-0.72;74.04
35577;BME280;21680;52.400;16.920;2023-01-28T13:15:47;101824.23;;;-0.77;73.66
35577;BME280;21680;52.400;16.920;2023-01-28T13:24:03;101826.48;;;-0.78;73.33
35577;BME280;21680;52.400;16.920;2023-01-28T13:31:50;101829.38;;;-0.83;73.24
35577;BME280;21680;52.400;16.920;2023-01-28T13:34:29;101829.39;;;-0.90;72.86
35577;BME280;21680;52.400;16.920;2023-01-28T13:37:00;101830.48;;;-0.96;72.87
35577;BME280;21680;52.400;16.920;2023-01-28T13:39:28;101834.36;;;-0.94;72.76
35577;BME280;21680;52.400;16.920;2023-01-28T13:42:07;101834.74;;;-0.93;72.71
35577;BME280;21680;52.400;16.920;2023-01-28T13:44:35;101830.45;;;-0.97;72.57
35577;BME280;21680;52.400;16.920;2023-01-28T13:49:45;101833.14;;;-1.02;72.54
35577;BME280;21680;52.400;16.920;2023-01-28T14:00:43;101828.59;;;-1.02;72.18
35577;BME280;21680;52.400;16.920;2023-01-28T14:15:21;101842.57;;;-1.12;71.80
35577;BME280;21680;52.400;16.920;2023-01-28T14:17:51;101842.46;;;-1.09;71.98
35577;BME280;21680;52.400;16.920;2023-01-28T14:20:24;101844.48;;;-1.05;72.08
35577;BME280;21680;52.400;16.920;2023-01-28T14:22:57;101839.17;;;-0.99;72.17
35577;BME280;21680;52.400;16.920;2023-01-28T14:28:10;101825.40;;;-0.95;72.06
35577;BME280;21680;52.400;16.920;2023-01-28T14:30:46;101824.08;;;-0.92;72.02
35577;BME280;21680;52.400;16.920;2023-01-28T14:33:14;101818.98;;;-0.92;72.14
35577;BME280;21680;52.400;16.920;2023-01-28T14:35:44;101818.61;;;-0.92;72.13
35577;BME280;21680;52.400;16.920;2023-01-28T14:38:19;101821.30;;;-0.90;72.10
35577;BME280;21680;52.400;16.920;2023-01-28T14:40:49;101820.14;;;-0.87;72.20
35577;BME280;21680;52.400;16.920;2023-01-28T14:43:19;101819.17;;;-0.84;72.22
35577;BME280;21680;52.400;16.920;2023-01-28T14:48:24;101817.94;;;-0.76;72.43
35577;BME280;21680;52.400;16.920;2023-01-28T14:53:39;101808.92;;;-0.71;72.33
35577;BME280;21680;52.400;16.920;2023-01-28T15:01:44;101803.86;;;-0.69;72.31
35577;BME280;21680;52.400;16.920;2023-01-28T15:04:30;101798.57;;;-0.71;72.48
35577;BME280;21680;52.400;16.920;2023-01-28T15:07:20;101801.88;;;-0.72;72.40
35577;BME280;21680;52.400;16.920;2023-01-28T15:09:47;101805.22;;;-0.72;72.46
35577;BME280;21680;52.400;16.920;2023-01-28T15:12:23;101801.67;;;-0.73;72.49
35577;BME280;21680;52.400;16.920;2023-01-28T15:14:49;101795.33;;;-0.75;72.62
35577;BME280;21680;52.400;16.920;2023-01-28T15:17:22;101792.34;;;-0.75;72.49